Time;durP1;ratioP1;P1;durP2;ratioP2;P2;SDS_P1;SDS_P2;PMS_P1;PMS_P2;Temp;Humidity;BMP_temperature;BMP_pressure;BME280_temperature;BME280_humidity;BME280_pressure;Samples;Min_cycle;Max_cycle;Signal;HPM_P1;HPM_P2
2023/02/17 00:01:56;;;;;;;107.50;56.38;;;;;;;2.51;100.00;101347.63;5037844;28;20052;-72
2023/02/17 00:04:22;;;;;;;105.82;57.13;;;;;;;2.44;100.00;101352.28;5037306;28;20060;-72
2023/02/17 00:06:47;;;;;;;102.63;55.58;;;;;;;2.36;100.00;101354.38;5037732;28;20075;-72
2023/02/17 00:09:13;;;;;;;105.55;54.90;;;;;;;2.25;100.00;101344.16;5035969;28;20051;-71
2023/02/17 00:11:39;;;;;;;97.95;52.70;;;;;;;2.23;100.00;101351.28;5028761;28;20596;-71
2023/02/17 00:14:04;;;;;;;98.95;52.85;;;;;;;2.17;100.00;101359.47;5042814;28;20764;-71
2023/02/17 00:16:30;;;;;;;99.43;53.05;;;;;;;2.08;100.00;101354.53;5029732;28;20030;-72
2023/02/17 00:18:58;;;;;;;104.10;55.47;;;;;;;1.91;100.00;101350.78;5030341;28;20521;-72
2023/02/17 00:21:27;;;;;;;103.95;53.63;;;;;;;1.92;100.00;101358.66;5032463;28;20033;-71
2023/02/17 00:23:53;;;;;;;100.03;54.65;;;;;;;1.80;100.00;101348.50;5039639;28;20041;-73
2023/02/17 00:26:19;;;;;;;105.13;53.17;;;;;;;1.80;100.00;101372.31;5033547;28;20036;-72
2023/02/17 00:28:45;;;;;;;102.63;54.17;;;;;;;1.70;100.00;101357.69;5043876;28;20045;-72
2023/02/17 00:31:17;;;;;;;106.93;53.83;;;;;;;1.65;100.00;101362.25;5032720;28;20034;-73
2023/02/17 00:33:42;;;;;;;112.45;56.95;;;;;;;1.65;100.00;101369.34;5034755;28;20451;-72
2023/02/17 00:36:13;;;;;;;102.97;55.92;;;;;;;1.58;100.00;101371.31;5040743;28;20060;-72
2023/02/17 00:38:38;;;;;;;107.55;52.63;;;;;;;1.52;100.00;101366.22;5038524;28;20184;-72
2023/02/17 00:41:04;;;;;;;102.13;54.50;;;;;;;1.51;100.00;101367.16;5038485;28;20060;-72
2023/02/17 00:43:30;;;;;;;100.97;52.88;;;;;;;1.45;100.00;101359.44;5037574;28;20083;-72
2023/02/17 00:45:55;;;;;;;105.65;55.67;;;;;;;1.47;100.00;101367.31;5029233;28;20040;-72
2023/02/17 00:48:21;;;;;;;105.72;56.67;;;;;;;1.51;100.00;101359.22;5029066;28;20024;-73
2023/02/17 00:50:47;;;;;;;109.55;59.47;;;;;;;1.51;100.00;101351.31;5035144;28;20475;-73
2023/02/17 00:53:13;;;;;;;110.80;57.13;;;;;;;1.56;100.00;101349.38;5035588;28;20033;-73
2023/02/17 00:55:38;;;;;;;115.10;56.90;;;;;;;1.62;100.00;101356.22;5034991;28;21135;-73
2023/02/17 00:58:03;;;;;;;112.95;56.95;;;;;;;1.67;100.00;101336.63;5034538;28;20123;-73
2023/02/17 01:00:29;;;;;;;108.15;56.63;;;;;;;1.76;100.00;101348.66;5032473;28;20033;-73
2023/02/17 01:02:55;;;;;;;110.18;58.55;;;;;;;1.73;100.00;101347.00;5031326;28;20099;-72
2023/02/17 01:05:20;;;;;;;111.88;57.00;;;;;;;1.71;100.00;101345.34;5037837;28;20033;-72
2023/02/17 01:07:45;;;;;;;109.38;57.80;;;;;;;1.71;100.00;101347.97;5040649;28;20029;-71
2023/02/17 01:10:11;;;;;;;105.30;58.30;;;;;;;1.58;100.00;101325.53;5038271;28;20480;-73
2023/02/17 01:12:37;;;;;;;110.32;54.67;;;;;;;1.63;100.00;101345.59;5035563;28;20121;-72
2023/02/17 01:15:03;;;;;;;108.47;56.20;;;;;;;1.59;100.00;101343.09;5039160;28;20051;-72
2023/02/17 01:17:29;;;;;;;108.68;56.30;;;;;;;1.48;100.00;101322.31;5033571;28;20099;-72
2023/02/17 01:19:54;;;;;;;114.28;57.75;;;;;;;1.47;100.00;101325.91;5044665;28;20025;-73
2023/02/17 01:22:20;;;;;;;109.72;57.22;;;;;;;1.45;100.00;101326.88;5038762;28;20029;-71
2023/02/17 01:24:45;;;;;;;109.07;55.80;;;;;;;1.34;100.00;101323.72;5041896;28;20021;-72
2023/02/17 01:27:11;;;;;;;108.78;54.90;;;;;;;1.34;100.00;101334.28;5043957;28;20025;-71
2023/02/17 01:29:36;;;;;;;105.88;55.92;;;;;;;1.28;100.00;101334.50;5040816;28;20036;-72
2023/02/17 01:32:02;;;;;;;113.13;56.33;;;;;;;1.06;100.00;101305.28;5041361;28;20037;-65
2023/02/17 01:34:27;;;;;;;104.30;55.53;;;;;;;1.09;100.00;101315.75;5033016;28;20021;-65
2023/02/17 01:36:53;;;;;;;115.78;56.33;;;;;;;1.05;100.00;101316.78;5034953;28;20484;-65
2023/02/17 01:39:19;;;;;;;107.65;55.90;;;;;;;1.07;100.00;101325.53;5043941;28;20400;-65
2023/02/17 01:41:44;;;;;;;109.20;55.88;;;;;;;0.99;100.00;101316.97;5046838;28;20495;-66
2023/02/17 01:44:18;;;;;;;105.03;55.45;;;;;;;0.96;100.00;101318.84;5042561;28;20123;-66
2023/02/17 01:46:46;;;;;;;113.57;56.53;;;;;;;0.94;100.00;101323.34;5025550;28;20491;-66
2023/02/17 01:49:18;;;;;;;111.63;54.90;;;;;;;0.91;100.00;101318.16;5037053;28;20268;-67
2023/02/17 01:51:46;;;;;;;111.40;56.90;;;;;;;0.74;100.00;101296.72;5037776;28;20119;-66
2023/02/17 01:54:17;;;;;;;116.05;59.85;;;;;;;0.82;100.00;101321.97;5042164;28;20083;-65
2023/02/17 01:56:46;;;;;;;109.45;57.03;;;;;;;0.82;100.00;101321.97;5039734;28;20032;-72
2023/02/17 01:59:17;;;;;;;107.95;54.17;;;;;;;0.84;100.00;101335.94;5033636;28;20124;-72
2023/02/17 02:01:44;;;;;;;104.50;54.70;;;;;;;0.74;100.00;101323.13;5033461;28;20025;-72
2023/02/17 02:04:11;;;;;;;110.88;57.85;;;;;;;0.78;100.00;101330.03;5038838;28;20041;-72
2023/02/17 02:06:42;;;;;;;103.70;56.20;;;;;;;0.76;100.00;101331.84;5041003;28;20041;-71
2023/02/17 02:09:12;;;;;;;111.18;57.30;;;;;;;0.73;100.00;101332.81;5037167;28;20509;-71
2023/02/17 02:11:37;;;;;;;105.43;53.38;;;;;;;0.71;100.00;101321.41;5036799;28;20112;-73
2023/02/17 02:14:06;;;;;;;110.70;56.55;;;;;;;0.74;100.00;101326.59;5042537;28;20477;-72
2023/02/17 02:16:46;;;;;;;106.78;54.38;;;;;;;0.77;100.00;101323.88;5033229;28;20033;-72
2023/02/17 02:19:36;;;;;;;107.65;54.42;;;;;;;0.80;100.00;101331.69;5034633;28;20087;-73
2023/02/17 02:22:32;;;;;;;111.55;56.25;;;;;;;0.82;100.00;101334.28;5040855;28;20538;-73
2023/02/17 02:25:25;;;;;;;112.60;55.42;;;;;;;0.79;100.00;101315.91;5037444;28;20037;-70
2023/02/17 02:28:37;;;;;;;112.65;56.33;;;;;;;0.84;100.00;101317.47;5042756;28;20029;-72
2023/02/17 02:31:06;;;;;;;104.95;52.85;;;;;;;0.96;100.00;101321.47;4985092;28;20077;-71
2023/02/17 02:33:40;;;;;;;105.60;55.88;;;;;;;1.00;100.00;101325.78;5039768;28;20585;-71
2023/02/17 02:36:05;;;;;;;113.95;56.10;;;;;;;1.08;100.00;101319.31;5034030;28;20048;-71
2023/02/17 02:38:43;;;;;;;112.13;58.85;;;;;;;1.15;100.00;101312.03;5035538;28;20383;-72
2023/02/17 02:41:13;;;;;;;103.65;54.83;;;;;;;1.18;100.00;101322.50;5039502;28;20045;-73
2023/02/17 02:43:40;;;;;;;106.88;56.30;;;;;;;1.25;100.00;101329.31;5037336;28;20045;-71
2023/02/17 02:46:06;;;;;;;105.65;54.60;;;;;;;1.19;100.00;101313.69;5029888;28;20028;-72
2023/02/17 02:48:31;;;;;;;114.15;56.53;;;;;;;1.25;100.00;101314.34;5039666;28;20022;-72
2023/02/17 02:51:17;;;;;;;103.32;54.30;;;;;;;1.21;100.00;101302.16;5037886;28;20498;-72
2023/02/17 02:53:52;;;;;;;106.50;55.50;;;;;;;1.29;100.00;101315.09;5040509;28;20117;-73
2023/02/17 02:56:26;;;;;;;103.25;54.70;;;;;;;1.32;100.00;101309.72;5037881;28;20068;-73
2023/02/17 02:59:10;;;;;;;;;;;;;;;1.36;100.00;101311.31;5033727;28;20033;-71
2023/02/17 03:01:54;;;;;;;105.22;53.60;;;;;;;1.42;100.00;101311.13;5054682;28;19913;-72
2023/02/17 03:04:25;;;;;;;103.60;53.65;;;;;;;1.48;100.00;101316.19;5036006;28;20079;-71
2023/02/17 03:07:20;;;;;;;111.00;58.30;;;;;;;1.50;100.00;101317.00;5029163;28;20101;-71
2023/02/17 03:09:57;;;;;;;109.18;55.28;;;;;;;1.50;100.00;101322.28;5033216;28;20515;-71
2023/02/17 03:12:23;;;;;;;104.03;54.05;;;;;;;1.43;100.00;101307.56;5044134;28;20413;-71
2023/02/17 03:14:53;;;;;;;107.47;56.35;;;;;;;1.48;100.00;101317.03;5036189;28;20035;-72
2023/02/17 03:17:19;;;;;;;106.38;53.65;;;;;;;1.45;100.00;101317.16;5037440;28;20037;-72
2023/02/17 03:19:46;;;;;;;98.65;51.88;;;;;;;1.43;100.00;101315.47;5036851;28;20705;-72
2023/02/17 03:22:14;;;;;;;102.53;54.28;;;;;;;1.42;100.00;101317.25;5031805;28;20044;-72
2023/02/17 03:24:40;;;;;;;101.40;52.17;;;;;;;1.39;100.00;101303.28;5039746;28;20033;-72
2023/02/17 03:27:05;;;;;;;102.78;52.92;;;;;;;1.39;100.00;101298.00;5030678;28;20091;-72
2023/02/17 03:29:31;;;;;;;105.72;54.97;;;;;;;1.41;100.00;101293.50;5038578;28;20391;-71
2023/02/17 03:31:56;;;;;;;104.95;55.22;;;;;;;1.43;100.00;101294.34;5037052;28;20154;-66
2023/02/17 03:34:22;;;;;;;103.78;55.60;;;;;;;1.37;100.00;101274.28;5036255;28;20464;-65
2023/02/17 03:36:47;;;;;;;101.38;52.78;;;;;;;1.42;100.00;101285.53;5041661;28;20386;-66
2023/02/17 03:39:12;;;;;;;103.07;53.60;;;;;;;1.45;100.00;101298.66;5032226;28;20033;-66
2023/02/17 03:41:38;;;;;;;99.82;53.50;;;;;;;1.50;100.00;101309.94;5032047;28;20025;-66
2023/02/17 03:44:03;;;;;;;101.15;52.42;;;;;;;1.49;100.00;101313.47;5040303;28;20029;-65
2023/02/17 03:46:29;;;;;;;95.90;51.85;;;;;;;1.48;100.00;101314.41;5026672;28;20186;-66
2023/02/17 03:48:54;;;;;;;96.32;52.92;;;;;;;1.38;100.00;101291.84;5039036;28;20036;-65
2023/02/17 03:51:21;;;;;;;93.00;51.53;;;;;;;1.38;100.00;101301.53;5037576;28;20078;-65
2023/02/17 03:53:48;;;;;;;102.20;53.05;;;;;;;1.31;100.00;101294.75;5039390;28;20093;-65
2023/02/17 03:56:14;;;;;;;97.63;51.47;;;;;;;1.33;100.00;101307.03;5029180;28;20025;-64
2023/02/17 03:58:40;;;;;;;97.68;51.67;;;;;;;1.30;100.00;101307.13;5040421;28;20033;-66
2023/02/17 04:01:08;;;;;;;95.97;51.83;;;;;;;1.25;100.00;101309.03;5025337;28;20164;-66
2023/02/17 04:03:34;;;;;;;100.80;52.75;;;;;;;1.23;100.00;101305.56;5031993;28;20058;-66
2023/02/17 04:06:00;;;;;;;100.28;52.67;;;;;;;1.16;100.00;101296.13;5044033;28;20032;-66
2023/02/17 04:08:25;;;;;;;94.28;50.17;;;;;;;1.20;100.00;101308.34;5038962;28;20044;-66
2023/02/17 04:10:53;;;;;;;94.97;49.80;;;;;;;1.17;100.00;101303.16;5036678;28;20033;-67
2023/02/17 04:13:18;;;;;;;92.50;48.63;;;;;;;1.17;100.00;101300.53;5030794;28;20079;-66
2023/02/17 04:15:44;;;;;;;93.75;50.67;;;;;;;1.00;100.00;101281.72;5038425;28;20422;-66
2023/02/17 04:18:09;;;;;;;96.25;50.17;;;;;;;1.11;100.00;101297.22;5035773;28;20025;-66
2023/02/17 04:20:35;;;;;;;99.57;52.50;;;;;;;1.10;100.00;101298.97;5029682;28;20040;-66
2023/02/17 04:23:00;;;;;;;93.93;50.58;;;;;;;1.24;100.00;101302.03;5033177;28;20087;-66
2023/02/17 04:25:25;;;;;;;103.85;55.40;;;;;;;1.29;100.00;101300.09;5037523;28;20104;-72
2023/02/17 04:27:51;;;;;;;98.43;52.67;;;;;;;1.31;100.00;101295.63;5037567;28;20025;-72
2023/02/17 04:30:16;;;;;;;103.60;54.97;;;;;;;1.27;100.00;101294.03;5037238;28;20104;-72
2023/02/17 04:32:42;;;;;;;99.80;51.88;;;;;;;1.30;100.00;101296.56;5029497;28;20025;-72
2023/02/17 04:35:07;;;;;;;105.47;51.85;;;;;;;1.35;100.00;101305.16;5034634;28;20418;-72
2023/02/17 04:37:33;;;;;;;94.78;53.00;;;;;;;1.26;100.00;101294.06;5032113;28;20452;-72
2023/02/17 04:39:58;;;;;;;91.13;50.50;;;;;;;1.28;100.00;101301.00;5031402;28;20037;-72
2023/02/17 04:42:24;;;;;;;101.60;53.08;;;;;;;1.24;100.00;101291.47;5038658;28;20142;-70
2023/02/17 04:44:49;;;;;;;100.35;52.25;;;;;;;1.26;100.00;101299.34;5039200;28;20472;-71
2023/02/17 04:47:14;;;;;;;99.03;52.20;;;;;;;1.32;100.00;101302.63;5041974;28;20040;-71
2023/02/17 04:49:40;;;;;;;101.10;52.55;;;;;;;1.34;100.00;101303.44;5043500;28;20100;-71
2023/02/17 04:52:05;;;;;;;97.93;52.10;;;;;;;1.38;100.00;101302.41;5045524;28;20042;-71
2023/02/17 04:54:31;;;;;;;99.70;52.67;;;;;;;1.45;100.00;101303.09;5034949;28;20108;-71
2023/02/17 04:56:56;;;;;;;96.50;50.13;;;;;;;1.45;100.00;101301.28;5038977;28;20041;-72
2023/02/17 04:59:22;;;;;;;104.32;52.45;;;;;;;1.43;100.00;101278.47;5044774;28;20113;-72
2023/02/17 05:01:47;;;;;;;95.40;50.10;;;;;;;1.50;100.00;101303.78;5035746;28;20037;-72
2023/02/17 05:04:12;;;;;;;93.70;49.58;;;;;;;1.53;100.00;101307.19;5037336;28;20044;-72
2023/02/17 05:06:38;;;;;;;91.93;47.55;;;;;;;1.49;100.00;101294.97;5042823;28;20024;-72
2023/02/17 05:09:03;;;;;;;96.22;49.33;;;;;;;1.53;100.00;101307.19;5038198;28;20037;-71
2023/02/17 05:11:30;;;;;;;95.78;49.47;;;;;;;1.53;100.00;101308.94;5038459;28;20033;-71
2023/02/17 05:13:56;;;;;;;95.43;49.40;;;;;;;1.59;100.00;101316.69;5041698;28;20056;-71
2023/02/17 05:16:21;;;;;;;93.28;49.88;;;;;;;1.69;100.00;101305.72;5041803;28;20565;-71
2023/02/17 05:18:47;;;;;;;94.78;50.22;;;;;;;1.64;100.00;101299.72;5039865;28;20033;-71
2023/02/17 05:21:12;;;;;;;88.00;47.60;;;;;;;1.65;100.00;101306.72;5040256;28;20037;-71
2023/02/17 05:23:40;;;;;;;97.00;52.45;;;;;;;1.76;100.00;101301.94;5033744;28;20037;-71
2023/02/17 05:26:07;;;;;;;95.60;49.15;;;;;;;1.83;100.00;101321.94;5042102;28;20033;-71
2023/02/17 05:28:34;;;;;;;86.47;47.03;;;;;;;1.75;100.00;101304.63;5037009;28;20040;-71
2023/02/17 05:31:00;;;;;;;91.18;48.50;;;;;;;1.63;100.00;101292.72;5036562;28;20087;-72
2023/02/17 05:33:26;;;;;;;90.38;48.28;;;;;;;1.67;100.00;101309.31;5033468;28;20039;-72
2023/02/17 05:35:51;;;;;;;90.15;48.08;;;;;;;1.62;100.00;101317.41;5034461;28;20036;-72
2023/02/17 05:38:17;;;;;;;95.28;48.28;;;;;;;1.60;100.00;101300.75;5031102;28;20033;-73
2023/02/17 05:40:42;;;;;;;95.25;49.22;;;;;;;1.54;100.00;101297.44;5044333;28;20033;-72
2023/02/17 05:43:08;;;;;;;86.18;47.35;;;;;;;1.58;100.00;101296.44;5042827;28;20087;-72
2023/02/17 05:45:33;;;;;;;98.40;51.10;;;;;;;1.60;100.00;101303.41;5041299;28;20029;-72
2023/02/17 05:47:59;;;;;;;96.32;49.25;;;;;;;1.59;100.00;101309.63;5037439;28;20029;-72
2023/02/17 05:50:25;;;;;;;92.75;49.75;;;;;;;1.64;100.00;101317.34;5038863;28;20024;-72
2023/02/17 05:52:50;;;;;;;88.43;46.58;;;;;;;1.64;100.00;101317.34;5040030;28;20025;-71
2023/02/17 05:55:16;;;;;;;92.32;47.42;;;;;;;1.69;100.00;101320.72;5041395;28;20422;-72
2023/02/17 05:57:41;;;;;;;102.47;51.97;;;;;;;1.68;100.00;101316.34;5037711;28;20028;-72
2023/02/17 06:00:07;;;;;;;89.10;48.45;;;;;;;1.60;100.00;101306.03;5036328;28;20459;-72
2023/02/17 06:02:33;;;;;;;90.13;47.90;;;;;;;1.88;100.00;101322.66;5038385;28;20672;-72
2023/02/17 06:04:58;;;;;;;95.75;49.78;;;;;;;1.95;100.00;101318.88;5040410;28;20037;-71
2023/02/17 06:07:24;;;;;;;94.97;50.40;;;;;;;2.04;100.00;101318.50;5042577;28;20079;-71
2023/02/17 06:09:49;;;;;;;93.50;47.88;;;;;;;2.07;100.00;101331.63;5033621;28;20621;-73
2023/02/17 06:12:15;;;;;;;92.53;48.80;;;;;;;2.22;100.00;101315.19;5039480;28;20025;-72
2023/02/17 06:14:40;;;;;;;106.07;53.72;;;;;;;2.28;100.00;101325.53;5044304;28;20029;-71
2023/02/17 06:17:06;;;;;;;99.88;55.58;;;;;;;2.20;100.00;101314.34;5036530;28;20030;-72
2023/02/17 06:19:31;;;;;;;119.00;64.88;;;;;;;2.22;100.00;101312.53;5028864;28;20025;-72
2023/02/17 06:21:57;;;;;;;138.82;71.07;;;;;;;2.21;100.00;101321.41;5031513;28;20502;-72
2023/02/17 06:24:23;;;;;;;141.57;70.10;;;;;;;2.28;100.00;101329.94;5038662;28;20090;-72
2023/02/17 06:26:48;;;;;;;231.30;114.55;;;;;;;2.30;100.00;101331.59;5033304;28;20025;-72
2023/02/17 06:29:14;;;;;;;153.15;79.28;;;;;;;2.32;100.00;101336.84;5033352;28;20494;-71
2023/02/17 06:31:39;;;;;;;110.05;57.63;;;;;;;2.39;100.00;101341.84;5030324;28;20069;-72
2023/02/17 06:34:05;;;;;;;107.93;55.80;;;;;;;2.43;100.00;101324.94;5030593;28;20037;-72
2023/02/17 06:36:30;;;;;;;102.82;52.65;;;;;;;2.54;100.00;101334.25;5026399;28;20697;-73
2023/02/17 06:38:56;;;;;;;96.93;51.40;;;;;;;2.62;100.00;101332.16;5031798;28;20033;-74
2023/02/17 06:41:21;;;;;;;95.35;50.83;;;;;;;2.72;100.00;101345.00;5037534;28;20051;-75
2023/02/17 06:43:47;;;;;;;102.95;51.20;;;;;;;2.91;100.00;101326.56;5033431;28;20030;-74
2023/02/17 06:46:12;;;;;;;90.95;49.92;;;;;;;3.00;100.00;101344.75;5035606;28;20408;-74
2023/02/17 06:48:38;;;;;;;88.28;48.55;;;;;;;3.08;100.00;101334.69;5041944;28;20025;-74
2023/02/17 06:51:03;;;;;;;97.10;52.10;;;;;;;3.18;100.00;101339.56;5040248;28;20029;-74
2023/02/17 06:53:29;;;;;;;97.03;50.35;;;;;;;3.07;100.00;101320.59;5035839;28;20057;-74
2023/02/17 06:55:55;;;;;;;100.90;55.58;;;;;;;3.07;100.00;101314.44;5040574;28;20076;-75
2023/02/17 06:58:20;;;;;;;85.68;49.70;;;;;;;3.17;100.00;101329.03;5043223;28;20475;-75
2023/02/17 07:00:46;;;;;;;92.47;49.50;;;;;;;3.29;100.00;101336.47;5037686;28;20100;-75
2023/02/17 07:03:11;;;;;;;91.13;48.38;;;;;;;3.36;100.00;101335.28;5034515;28;20030;-75
2023/02/17 07:05:38;;;;;;;96.85;52.20;;;;;;;3.44;100.00;101339.31;5036525;28;20060;-74
2023/02/17 07:08:04;;;;;;;88.15;49.63;;;;;;;3.53;100.00;101351.34;5040969;28;20049;-74
2023/02/17 07:10:30;;;;;;;95.97;49.40;;;;;;;3.64;100.00;101333.19;5043483;28;20044;-75
2023/02/17 07:12:56;;;;;;;88.82;49.72;;;;;;;3.67;100.00;101330.38;5039161;28;20029;-75
2023/02/17 07:15:21;;;;;;;90.53;47.95;;;;;;;3.65;100.00;101335.75;5040535;28;20044;-75
2023/02/17 07:17:46;;;;;;;92.20;48.47;;;;;;;3.72;100.00;101336.34;5041080;28;20095;-75
2023/02/17 07:20:12;;;;;;;84.88;47.45;;;;;;;3.66;100.00;101323.34;5032765;28;20052;-75
2023/02/17 07:22:38;;;;;;;88.35;47.75;;;;;;;3.70;100.00;101320.50;5040676;28;20059;-75
2023/02/17 07:25:04;;;;;;;91.50;48.50;;;;;;;3.77;100.00;101326.41;5044488;28;20033;-75
2023/02/17 07:27:30;;;;;;;89.30;48.90;;;;;;;3.83;100.00;101323.47;5033166;28;20049;-76
2023/02/17 07:29:56;;;;;;;93.10;50.35;;;;;;;3.92;100.00;101328.38;5044404;28;20063;-73
2023/02/17 07:32:22;;;;;;;88.93;49.03;;;;;;;4.01;100.00;101338.59;5037053;28;20037;-75
2023/02/17 07:34:47;;;;;;;93.82;51.08;;;;;;;4.17;100.00;101342.28;5029542;28;20033;-74
2023/02/17 07:37:13;;;;;;;97.35;52.58;;;;;;;4.27;100.00;101336.47;5041339;28;20065;-75
2023/02/17 07:39:38;;;;;;;100.85;54.83;;;;;;;4.28;100.00;101322.25;5034979;28;20484;-76
2023/02/17 07:42:05;;;;;;;108.63;57.42;;;;;;;4.39;100.00;101321.78;5029489;28;20038;-76
2023/02/17 07:44:31;;;;;;;92.55;50.35;;;;;;;4.62;100.00;101330.34;5040540;28;20033;-76
2023/02/17 07:46:57;;;;;;;87.85;48.80;;;;;;;4.73;100.00;101325.41;5034679;28;20033;-75
2023/02/17 07:49:22;;;;;;;89.15;48.58;;;;;;;5.18;100.00;101319.66;5023716;28;20049;-76
2023/02/17 07:51:48;;;;;;;84.13;46.90;;;;;;;5.24;100.00;101324.66;5030628;28;20040;-76
2023/02/17 07:54:13;;;;;;;92.13;50.75;;;;;;;5.17;100.00;101333.00;5024627;28;21233;-76
2023/02/17 07:56:39;;;;;;;99.40;55.97;;;;;;;5.35;100.00;101324.97;5039432;28;20039;-76
2023/02/17 07:59:09;;;;;;;85.68;46.70;;;;;;;5.67;98.36;101339.31;5040361;28;20051;-75
2023/02/17 08:01:34;;;;;;;86.20;48.10;;;;;;;5.69;97.69;101330.31;5029314;28;20024;-75
2023/02/17 08:03:59;;;;;;;81.32;46.53;;;;;;;5.68;97.52;101328.56;5033161;28;20036;-76
2023/02/17 08:06:25;;;;;;;79.10;46.05;;;;;;;5.85;95.89;101331.28;5029153;28;20106;-77
2023/02/17 08:14:24;;;;;;;81.03;43.60;;;;;;;5.85;95.15;101319.75;5029500;28;20537;-75
2023/02/17 08:16:50;;;;;;;81.93;44.70;;;;;;;5.92;95.54;101332.66;5036123;28;20027;-76
2023/02/17 08:19:15;;;;;;;87.80;46.85;;;;;;;5.91;95.06;101314.09;5037208;28;20471;-76
2023/02/17 08:21:41;;;;;;;79.07;45.22;;;;;;;6.00;95.17;101337.59;5030197;28;20076;-76
2023/02/17 08:24:07;;;;;;;81.28;46.95;;;;;;;5.90;95.08;101312.41;5034603;28;20033;-75
2023/02/17 08:26:32;;;;;;;72.85;42.08;;;;;;;6.06;95.92;101330.13;5034703;28;20107;-76
2023/02/17 08:28:57;;;;;;;77.68;43.58;;;;;;;6.06;95.48;101331.94;5036984;28;20427;-76
2023/02/17 08:31:26;;;;;;;75.35;43.78;;;;;;;6.28;93.20;101325.38;5036032;28;20051;-75
2023/02/17 08:33:53;;;;;;;75.72;44.90;;;;;;;6.50;91.64;101328.59;5032064;28;20430;-77
2023/02/17 08:36:21;;;;;;;72.05;43.25;;;;;;;6.57;90.27;101311.31;5036477;28;20179;-77
2023/02/17 08:38:49;;;;;;;75.80;44.40;;;;;;;6.77;90.25;101334.16;5033879;28;20052;-77
2023/02/17 08:41:30;;;;;;;75.82;44.95;;;;;;;6.99;87.54;101338.22;5041543;28;20467;-77
2023/02/17 08:43:56;;;;;;;77.30;46.92;;;;;;;7.16;87.05;101334.56;5035647;28;20524;-76
2023/02/17 08:46:22;;;;;;;72.28;42.45;;;;;;;7.04;87.67;101325.47;5042874;28;20021;-77
2023/02/17 08:48:48;;;;;;;75.80;43.38;;;;;;;6.97;87.83;101323.25;5039480;28;20826;-77
2023/02/17 08:51:16;;;;;;;73.25;43.38;;;;;;;7.21;86.18;101339.66;5034246;28;20048;-74
2023/02/17 08:53:44;;;;;;;78.43;43.92;;;;;;;7.09;86.93;101329.69;5038640;28;20546;-74
2023/02/17 08:56:10;;;;;;;71.82;43.42;;;;;;;7.12;86.13;101322.38;5040616;28;20021;-75
2023/02/17 08:58:35;;;;;;;74.40;42.92;;;;;;;7.11;86.15;101319.78;5030766;28;20060;-76
2023/02/17 09:01:02;;;;;;;72.38;42.88;;;;;;;7.38;84.58;101336.88;5038581;28;20112;-75
2023/02/17 09:03:27;;;;;;;70.55;41.10;;;;;;;7.36;84.59;101344.09;5032978;28;20029;-75
2023/02/17 09:05:54;;;;;;;73.40;41.55;;;;;;;7.48;83.74;101338.91;5035718;28;20038;-76
2023/02/17 09:08:20;;;;;;;71.40;43.33;;;;;;;7.42;84.17;101344.63;5034031;28;20053;-76
2023/02/17 09:10:45;;;;;;;77.22;42.00;;;;;;;7.45;84.43;101332.91;5035041;28;20174;-76
2023/02/17 09:13:11;;;;;;;71.70;42.17;;;;;;;7.56;83.37;101341.13;5037008;28;20112;-76
2023/02/17 09:15:37;;;;;;;68.25;41.53;;;;;;;7.75;82.00;101347.09;5035049;28;20018;-76
2023/02/17 09:18:03;;;;;;;72.00;41.97;;;;;;;7.67;82.36;101349.38;5036003;28;20494;-76
2023/02/17 09:20:28;;;;;;;69.50;41.63;;;;;;;7.62;83.55;101336.28;5033321;28;20017;-75
2023/02/17 09:22:54;;;;;;;75.97;42.92;;;;;;;7.62;83.44;101338.97;5035071;28;20029;-76
2023/02/17 09:25:19;;;;;;;65.72;41.55;;;;;;;7.83;82.33;101335.00;5027657;28;20373;-75
2023/02/17 09:27:45;;;;;;;69.45;41.97;;;;;;;7.86;82.76;101334.81;5034630;28;20025;-75
2023/02/17 09:30:11;;;;;;;74.68;43.75;;;;;;;7.79;83.59;101321.91;5044877;28;20021;-75
2023/02/17 09:32:40;;;;;;;72.63;43.47;;;;;;;7.84;83.60;101325.19;5040119;28;20041;-76
2023/02/17 09:35:06;;;;;;;72.78;42.92;;;;;;;7.93;84.80;101320.13;5037858;28;20184;-76
2023/02/17 09:37:31;;;;;;;80.72;43.88;;;;;;;8.08;83.80;101334.34;5032831;28;20025;-75
2023/02/17 09:39:57;;;;;;;72.35;43.78;;;;;;;8.20;82.54;101330.94;5034923;28;20060;-75
2023/02/17 09:42:25;;;;;;;75.70;42.85;;;;;;;8.39;80.09;101335.06;5039403;28;20032;-76
2023/02/17 09:45:03;;;;;;;76.72;44.88;;;;;;;8.60;77.45;101344.41;5039093;28;20827;-76
2023/02/17 09:47:57;;;;;;;70.25;42.13;;;;;;;8.80;75.51;101335.09;5033923;28;20025;-76
2023/02/17 09:50:49;;;;;;;70.10;40.37;;;;;;;9.00;74.27;101346.25;5035088;28;20025;-75
2023/02/17 09:53:41;;;;;;;65.03;38.75;;;;;;;9.25;71.61;101326.75;5033716;28;20037;-76
2023/02/17 09:56:16;;;;;;;76.30;42.58;;;;;;;9.24;72.61;101338.44;5010858;28;20456;-76
2023/02/17 09:59:18;;;;;;;69.97;41.63;;;;;;;9.30;72.12;101330.00;5047626;28;20729;-76
2023/02/17 10:01:46;;;;;;;68.45;39.40;;;;;;;9.31;72.05;101325.50;5004574;28;20101;-75
2023/02/17 10:04:18;;;;;;;67.07;40.20;;;;;;;9.23;72.43;101324.16;5035232;28;20078;-74
2023/02/17 10:06:47;;;;;;;85.05;45.80;;;;;;;9.13;73.31;101308.84;5028622;28;20030;-73
2023/02/17 10:09:22;;;;;;;77.40;43.05;;;;;;;9.23;73.58;101320.66;5036884;28;20913;-75
2023/02/17 10:12:05;;;;;;;76.30;44.47;;;;;;;9.19;74.15;101320.00;5029174;28;20120;-75
2023/02/17 10:14:53;;;;;;;83.85;48.38;;;;;;;9.25;74.03;101326.75;5029584;28;20029;-75
2023/02/17 10:17:26;;;;;;;69.03;40.30;;;;;;;9.25;73.95;101332.09;5036074;28;20072;-75
2023/02/17 10:20:16;;;;;;;74.35;43.65;;;;;;;9.32;73.40;101338.75;5039928;28;20033;-75
2023/02/17 10:22:46;;;;;;;68.43;40.53;;;;;;;9.32;73.54;101325.38;5038771;28;20037;-75
2023/02/17 10:25:20;;;;;;;71.93;43.38;;;;;;;9.42;72.98;101323.81;5040885;28;20029;-75
2023/02/17 10:27:54;;;;;;;70.40;43.17;;;;;;;9.46;72.67;101317.31;5038820;28;20029;-74
2023/02/17 10:30:23;;;;;;;75.38;44.28;;;;;;;9.54;72.43;101316.78;5036999;28;20263;-74
2023/02/17 10:33:03;;;;;;;68.07;41.97;;;;;;;9.62;72.17;101306.41;5035739;28;20043;-73
2023/02/17 10:35:49;;;;;;;67.45;41.10;;;;;;;9.70;71.68;101299.53;5040169;28;20086;-74
2023/02/17 10:38:33;;;;;;;64.55;40.28;;;;;;;9.92;69.93;101307.81;5041246;28;20025;-74
2023/02/17 10:41:02;;;;;;;64.65;39.67;;;;;;;9.98;70.25;101301.19;5038248;28;20437;-76
2023/02/17 10:43:31;;;;;;;71.30;42.33;;;;;;;10.02;69.16;101286.59;5033803;28;20037;-75
2023/02/17 10:46:02;;;;;;;68.07;41.75;;;;;;;10.09;68.83;101286.09;5037725;28;20072;-74
2023/02/17 10:48:49;;;;;;;64.38;40.30;;;;;;;10.11;68.33;101265.41;5041402;28;20021;-75
2023/02/17 10:51:23;;;;;;;64.43;38.63;;;;;;;10.19;67.36;101265.72;5037602;28;20029;-68
2023/02/17 10:53:55;;;;;;;;;;;;;;;10.20;67.71;101277.31;5036227;28;20115;-69
2023/02/17 10:56:32;;;;;;;64.32;36.80;;;;;;;10.21;68.27;101263.78;5036283;28;20371;-68
2023/02/17 10:59:05;;;;;;;63.45;38.63;;;;;;;10.17;68.53;101254.25;5039329;28;20021;-69
2023/02/17 11:01:31;;;;;;;66.93;41.08;;;;;;;10.29;68.32;101261.41;5032443;28;20029;-68
2023/02/17 11:04:05;;;;;;;69.00;42.35;;;;;;;10.29;67.76;101261.41;5031102;28;20044;-68
2023/02/17 11:06:36;;;;;;;69.03;42.55;;;;;;;10.27;67.87;101241.03;5031556;28;20431;-68
2023/02/17 11:09:16;;;;;;;71.03;41.13;;;;;;;10.36;66.94;101233.19;5033251;28;20130;-68
2023/02/17 11:11:51;;;;;;;71.45;42.30;;;;;;;10.43;67.34;101244.31;5039183;28;20068;-69
2023/02/17 11:14:26;;;;;;;71.30;43.03;;;;;;;10.32;67.25;101204.03;5038499;28;20033;-71
2023/02/17 11:16:59;;;;;;;72.63;44.45;;;;;;;10.57;66.37;101214.66;5032887;28;20034;-69
2023/02/17 11:19:29;;;;;;;76.40;44.95;;;;;;;10.73;66.14;101229.53;5034654;28;20030;-69
2023/02/17 11:21:57;;;;;;;73.05;43.40;;;;;;;10.88;65.30;101225.72;5039812;28;20036;-69